Time;durP1;ratioP1;P1;durP2;ratioP2;P2;SDS_P1;SDS_P2;PMS_P1;PMS_P2;Temp;Humidity;BMP_temperature;BMP_pressure;BME280_temperature;BME280_humidity;BME280_pressure;Samples;Min_cycle;Max_cycle;Signal;HPM_P1;HPM_P2
2021/03/06 00:00:21;;;;;;;0.17;0.10;;;0.80;73.20;;;;;;4994308;28;20037;-74
2021/03/06 00:02:47;;;;;;;0.40;0.10;;;0.90;73.30;;;;;;5013467;28;20058;-74
2021/03/06 00:05:14;;;;;;;0.28;0.10;;;0.80;73.20;;;;;;4979436;28;20042;-74
2021/03/06 00:07:40;;;;;;;0.20;0.20;;;0.80;73.30;;;;;;5012991;28;20476;-74
2021/03/06 00:10:10;;;;;;;0.93;0.20;;;0.80;73.30;;;;;;5013089;28;20391;-74
2021/03/06 00:12:36;;;;;;;0.10;0.10;;;0.70;73.40;;;;;;4996116;28;20029;-74
2021/03/06 00:15:02;;;;;;;0.30;0.20;;;0.70;73.40;;;;;;5013096;28;20568;-74
2021/03/06 00:17:28;;;;;;;0.10;0.10;;;0.70;73.50;;;;;;4994833;28;20092;-74
2021/03/06 00:19:53;;;;;;;0.30;0.10;;;0.70;73.60;;;;;;5013166;28;20038;-74
2021/03/06 00:22:19;;;;;;;0.15;0.05;;;0.60;73.60;;;;;;5013023;28;20416;-74
2021/03/06 00:24:45;;;;;;;0.50;0.10;;;0.70;73.70;;;;;;5013195;28;20049;-74
2021/03/06 00:27:10;;;;;;;0.10;0.10;;;0.60;73.70;;;;;;5012807;28;20042;-74
2021/03/06 00:29:36;;;;;;;0.00;0.00;;;0.60;73.80;;;;;;5013213;28;20076;-74
2021/03/06 00:32:02;;;;;;;0.28;0.10;;;0.50;73.80;;;;;;5013382;28;20396;-74
2021/03/06 00:34:28;;;;;;;0.10;0.10;;;0.50;73.90;;;;;;4995492;28;20084;-74
2021/03/06 00:36:53;;;;;;;0.65;0.15;;;0.50;74.00;;;;;;5013236;28;20136;-74
2021/03/06 00:39:19;;;;;;;1.75;0.25;;;0.50;74.10;;;;;;5013174;28;20041;-74
2021/03/06 00:41:45;;;;;;;0.10;0.10;;;0.50;74.10;;;;;;5012823;28;20400;-74
2021/03/06 00:44:10;;;;;;;0.00;0.00;;;0.40;74.10;;;;;;5013084;28;20065;-74
2021/03/06 00:46:36;;;;;;;0.08;0.08;;;0.40;74.10;;;;;;5013098;28;20041;-74
2021/03/06 00:49:03;;;;;;;0.10;0.10;;;0.40;74.30;;;;;;4995700;28;20054;-74
2021/03/06 00:51:28;;;;;;;0.08;0.08;;;0.30;74.30;;;;;;5013204;28;20125;-74
2021/03/06 00:53:54;;;;;;;0.10;0.10;;;0.20;74.30;;;;;;5012547;28;20161;-74
2021/03/06 00:56:20;;;;;;;0.10;0.10;;;0.20;74.40;;;;;;5012826;28;20042;-74
2021/03/06 00:58:46;;;;;;;0.20;0.10;;;0.20;74.50;;;;;;5012520;28;20033;-74
2021/03/06 01:01:12;;;;;;;0.03;0.03;;;0.10;74.60;;;;;;4995007;28;20038;-74
2021/03/06 01:03:39;;;;;;;0.32;0.10;;;0.10;74.70;;;;;;5012690;28;20057;-74
2021/03/06 01:06:06;;;;;;;0.00;0.00;;;0.10;74.80;;;;;;5012401;28;20096;-74
2021/03/06 01:08:32;;;;;;;0.10;0.10;;;0.10;74.80;;;;;;4994644;28;20562;-74
2021/03/06 01:10:58;;;;;;;0.10;0.10;;;0.00;74.80;;;;;;5012524;28;20038;-74
2021/03/06 01:13:26;;;;;;;0.82;0.17;;;0.00;74.90;;;;;;4994738;28;20541;-74
2021/03/06 01:15:52;;;;;;;0.10;0.10;;;0.00;75.00;;;;;;5012331;28;20046;-74
2021/03/06 01:18:18;;;;;;;0.10;0.10;;;-0.10;75.00;;;;;;5012459;28;20515;-74
2021/03/06 01:20:44;;;;;;;0.85;0.20;;;-0.10;75.10;;;;;;5012072;28;20121;-74
2021/03/06 01:23:10;;;;;;;0.00;0.00;;;-0.10;75.20;;;;;;5012541;28;20891;-74
2021/03/06 01:25:35;;;;;;;0.28;0.10;;;-0.10;75.20;;;;;;5012680;28;20514;-74
2021/03/06 01:28:01;;;;;;;0.25;0.10;;;-0.20;75.20;;;;;;5012214;28;20046;-74
2021/03/06 01:30:27;;;;;;;0.08;0.00;;;-0.20;75.30;;;;;;5011500;28;20084;-74
2021/03/06 01:32:53;;;;;;;0.43;0.13;;;-0.20;75.30;;;;;;5011897;28;20058;-74
2021/03/06 01:35:22;;;;;;;0.00;0.00;;;-0.30;75.40;;;;;;5011929;28;20048;-74
2021/03/06 01:37:48;;;;;;;0.00;0.00;;;-0.30;75.50;;;;;;5012498;28;20203;-74
2021/03/06 01:40:18;;;;;;;0.35;0.17;;;-0.30;75.50;;;;;;5012074;28;20125;-74
2021/03/06 01:42:43;;;;;;;0.00;0.00;;;-0.30;75.50;;;;;;4993332;28;20049;-74
2021/03/06 01:45:10;;;;;;;0.13;0.13;;;-0.30;75.50;;;;;;4994765;28;20404;-74
2021/03/06 01:47:37;;;;;;;0.10;0.10;;;-0.40;75.50;;;;;;5011781;28;20038;-74
2021/03/06 01:50:05;;;;;;;0.00;0.00;;;-0.40;75.60;;;;;;5012483;28;20468;-74
2021/03/06 01:52:30;;;;;;;0.52;0.00;;;-0.40;75.60;;;;;;5010876;28;20062;-74
2021/03/06 01:54:57;;;;;;;0.00;0.00;;;-0.30;75.80;;;;;;5011632;28;20088;-74
2021/03/06 01:57:24;;;;;;;0.10;0.10;;;-0.50;75.70;;;;;;5011543;28;20515;-74
2021/03/06 01:59:51;;;;;;;0.10;0.10;;;-0.50;75.80;;;;;;5012151;28;20074;-74
2021/03/06 02:02:17;;;;;;;0.00;0.00;;;-0.50;75.90;;;;;;4994721;28;20061;-74
2021/03/06 02:04:43;;;;;;;0.28;0.20;;;-0.60;75.90;;;;;;5011566;28;20377;-74
2021/03/06 02:07:09;;;;;;;0.20;0.20;;;-0.60;76.00;;;;;;5011547;28;20076;-74
2021/03/06 02:09:35;;;;;;;0.10;0.10;;;-0.60;76.00;;;;;;4993785;28;20041;-74
2021/03/06 02:12:17;;;;;;;0.10;0.10;;;-0.60;76.10;;;;;;5011575;28;20052;-74
2021/03/06 02:14:59;;;;;;;0.10;0.10;;;-0.70;76.10;;;;;;5011748;28;20042;-74
2021/03/06 02:17:42;;;;;;;0.35;0.10;;;-0.70;76.20;;;;;;5011467;28;20042;-74
2021/03/06 02:20:22;;;;;;;0.00;0.00;;;-0.70;76.10;;;;;;4995775;28;20485;-74
2021/03/06 02:23:07;;;;;;;0.10;0.10;;;-0.80;76.20;;;;;;5012013;28;20042;-74
2021/03/06 02:25:54;;;;;;;0.20;0.10;;;-0.80;76.20;;;;;;5011483;28;20068;-74
2021/03/06 02:28:40;;;;;;;0.10;0.10;;;-0.80;76.30;;;;;;5011257;28;20046;-74
2021/03/06 02:31:09;;;;;;;0.52;0.20;;;-0.80;76.30;;;;;;5011599;28;20048;-74
2021/03/06 02:33:39;;;;;;;0.10;0.10;;;-0.90;76.30;;;;;;5011106;28;20121;-74
2021/03/06 02:36:09;;;;;;;0.03;0.03;;;-0.80;76.50;;;;;;4993451;28;20050;-74
2021/03/06 02:38:38;;;;;;;0.05;0.05;;;-0.90;76.40;;;;;;4993508;28;20399;-74
2021/03/06 02:41:05;;;;;;;0.05;0.05;;;-0.90;76.40;;;;;;5011182;28;20125;-74
2021/03/06 02:43:32;;;;;;;0.10;0.10;;;-0.90;76.40;;;;;;4997444;28;20073;-74
2021/03/06 02:45:58;;;;;;;0.20;0.20;;;-1.00;76.40;;;;;;5014360;28;20125;-74
2021/03/06 02:48:24;;;;;;;0.30;0.10;;;-1.00;76.50;;;;;;5014552;28;20514;-74
2021/03/06 02:50:54;;;;;;;0.30;0.05;;;-0.90;76.60;;;;;;5012802;28;20061;-74
2021/03/06 02:53:20;;;;;;;0.28;0.13;;;-1.00;76.60;;;;;;5014760;28;20034;-74
2021/03/06 02:55:46;;;;;;;0.55;0.10;;;-1.10;77.20;;;;;;5014875;28;20093;-74
2021/03/06 02:58:48;;;;;;;0.30;0.10;;;-1.00;76.70;;;;;;5014226;28;20049;-74
2021/03/06 03:01:26;;;;;;;0.20;0.13;;;-1.10;76.70;;;;;;5014134;28;20096;-74
2021/03/06 03:03:59;;;;;;;0.45;0.20;;;-1.00;76.80;;;;;;5014044;28;20038;-74
2021/03/06 03:06:43;;;;;;;0.00;0.00;;;-1.20;76.70;;;;;;5014197;28;20046;-74
2021/03/06 03:09:18;;;;;;;0.22;0.10;;;-1.10;76.90;;;;;;5012510;28;20180;-74
2021/03/06 03:11:51;;;;;;;0.15;0.10;;;-1.20;76.90;;;;;;5013907;28;20042;-74
2021/03/06 03:14:22;;;;;;;0.82;0.15;;;-1.30;76.80;;;;;;5014716;28;20439;-74
2021/03/06 03:16:53;;;;;;;0.10;0.10;;;-1.20;76.90;;;;;;5014089;28;20057;-74
2021/03/06 03:19:30;;;;;;;0.20;0.20;;;-1.30;76.90;;;;;;5014164;28;20743;-74
2021/03/06 03:21:59;;;;;;;0.40;0.10;;;-1.30;76.90;;;;;;4996384;28;20077;-74
2021/03/06 03:24:28;;;;;;;0.00;0.00;;;-1.30;77.00;;;;;;5014140;28;20042;-73
2021/03/06 03:26:56;;;;;;;0.00;0.00;;;-1.30;77.00;;;;;;5014398;28;20045;-73
2021/03/06 03:29:22;;;;;;;0.08;0.08;;;-1.30;77.00;;;;;;5014029;28;20045;-73
2021/03/06 03:31:50;;;;;;;0.00;0.00;;;-1.30;77.10;;;;;;4996110;28;20507;-74
2021/03/06 03:34:20;;;;;;;0.00;0.00;;;-1.30;77.70;;;;;;4996175;28;20065;-74
2021/03/06 03:36:48;;;;;;;0.05;0.05;;;-1.40;77.20;;;;;;5013964;28;20125;-74
2021/03/06 03:39:14;;;;;;;0.00;0.00;;;-1.40;77.20;;;;;;5013747;28;20040;-74
2021/03/06 03:41:40;;;;;;;0.30;0.10;;;-1.40;77.20;;;;;;5013966;28;20113;-74
2021/03/06 03:44:07;;;;;;;0.20;0.10;;;-1.40;77.30;;;;;;5013432;28;20567;-74
2021/03/06 03:46:34;;;;;;;0.40;0.10;;;-1.40;77.40;;;;;;5013143;28;20033;-74
2021/03/06 03:49:02;;;;;;;0.45;0.20;;;-1.40;78.00;;;;;;5013957;28;20034;-74
2021/03/06 03:51:28;;;;;;;0.35;0.10;;;-1.50;77.40;;;;;;5012908;28;20053;-74
2021/03/06 03:53:54;;;;;;;0.10;0.10;;;-1.50;77.40;;;;;;5013220;28;20038;-74
2021/03/06 03:56:21;;;;;;;0.35;0.20;;;-1.40;77.50;;;;;;5013090;28;20054;-74
2021/03/06 03:58:47;;;;;;;0.10;0.10;;;-1.50;77.60;;;;;;5013322;28;20037;-74
2021/03/06 04:01:13;;;;;;;0.08;0.08;;;-1.50;77.60;;;;;;5013190;28;20120;-74
2021/03/06 04:03:39;;;;;;;0.00;0.00;;;-1.50;77.60;;;;;;5013147;28;20125;-74
2021/03/06 04:06:06;;;;;;;0.10;0.10;;;-1.60;77.60;;;;;;4995780;28;20060;-74
2021/03/06 04:08:32;;;;;;;0.03;0.03;;;-1.60;77.60;;;;;;5013631;28;20045;-74
2021/03/06 04:10:58;;;;;;;0.10;0.10;;;-1.50;77.70;;;;;;5013691;28;20554;-74
2021/03/06 04:13:24;;;;;;;0.00;0.00;;;-1.60;77.60;;;;;;5013169;28;20064;-74
2021/03/06 04:15:49;;;;;;;0.20;0.10;;;-1.60;77.70;;;;;;4995338;28;20042;-74
2021/03/06 04:18:15;;;;;;;0.00;0.00;;;-1.60;77.80;;;;;;5012876;28;20072;-74
2021/03/06 04:20:41;;;;;;;0.43;0.10;;;-1.60;77.90;;;;;;4995272;28;20049;-73
2021/03/06 04:23:07;;;;;;;0.03;0.00;;;-1.70;77.80;;;;;;5012884;28;20045;-74
2021/03/06 04:25:33;;;;;;;0.10;0.10;;;-1.60;77.90;;;;;;5012940;28;20447;-74
2021/03/06 04:27:58;;;;;;;0.57;0.10;;;-1.70;77.90;;;;;;4995524;28;20411;-74
2021/03/06 04:30:25;;;;;;;0.00;0.00;;;-1.70;77.90;;;;;;5013340;28;20126;-75
2021/03/06 04:32:51;;;;;;;0.03;0.00;;;-1.70;77.90;;;;;;5012895;28;20526;-73
2021/03/06 04:35:20;;;;;;;0.10;0.10;;;-1.70;77.90;;;;;;5013482;28;20153;-74
2021/03/06 04:37:46;;;;;;;0.00;0.00;;;-1.70;78.00;;;;;;4995442;28;20042;-74
2021/03/06 04:40:14;;;;;;;0.68;0.20;;;-1.70;78.10;;;;;;5013205;28;20085;-74
2021/03/06 04:42:40;;;;;;;0.35;0.20;;;-1.70;78.10;;;;;;5012598;28;20448;-74
2021/03/06 04:45:08;;;;;;;0.35;0.10;;;-1.70;78.10;;;;;;5013159;28;20116;-74
2021/03/06 04:47:34;;;;;;;0.00;0.00;;;-1.80;78.10;;;;;;5012834;28;20048;-74
2021/03/06 04:49:59;;;;;;;0.00;0.00;;;-1.70;78.20;;;;;;5012866;28;20785;-74
2021/03/06 04:52:25;;;;;;;1.27;0.10;;;-1.80;78.20;;;;;;5013157;28;20053;-74
2021/03/06 04:54:51;;;;;;;0.38;0.10;;;-1.80;78.20;;;;;;5012926;28;20121;-74
2021/03/06 04:57:17;;;;;;;0.10;0.10;;;-1.80;78.30;;;;;;5012581;28;20216;-73
2021/03/06 04:59:43;;;;;;;0.00;0.00;;;-1.80;78.40;;;;;;4995305;28;20076;-74
2021/03/06 05:02:09;;;;;;;0.13;0.13;;;-1.90;78.40;;;;;;4978528;28;20590;-74
2021/03/06 05:04:35;;;;;;;0.10;0.10;;;-1.90;78.50;;;;;;5012484;28;20049;-74
2021/03/06 05:07:01;;;;;;;0.15;0.15;;;-1.90;78.50;;;;;;4994889;28;20054;-75
2021/03/06 05:09:27;;;;;;;0.30;0.10;;;-2.00;78.50;;;;;;5012854;28;20514;-74
2021/03/06 05:11:53;;;;;;;0.00;0.00;;;-1.90;78.60;;;;;;5012280;28;20046;-74
2021/03/06 05:14:19;;;;;;;0.10;0.10;;;-1.90;78.70;;;;;;4993071;28;20042;-74
2021/03/06 05:16:45;;;;;;;0.15;0.08;;;-1.90;78.70;;;;;;5012178;28;20053;-75
2021/03/06 05:19:11;;;;;;;0.10;0.03;;;-2.00;78.70;;;;;;4994823;28;20109;-74
2021/03/06 05:21:37;;;;;;;0.25;0.10;;;-2.00;78.60;;;;;;4994641;28;20034;-74
2021/03/06 05:24:04;;;;;;;0.15;0.10;;;-1.90;78.70;;;;;;5012117;28;20083;-74
2021/03/06 05:26:30;;;;;;;0.22;0.10;;;-1.90;79.30;;;;;;5011782;28;20046;-74
2021/03/06 05:28:55;;;;;;;0.10;0.10;;;-2.00;78.70;;;;;;4994607;28;20523;-74
2021/03/06 05:31:21;;;;;;;0.00;0.00;;;-2.00;78.80;;;;;;5012183;28;20483;-74
2021/03/06 05:33:47;;;;;;;0.20;0.10;;;-2.10;78.80;;;;;;4978361;28;20038;-74
2021/03/06 05:36:13;;;;;;;0.10;0.10;;;-2.10;78.90;;;;;;5011645;28;20045;-75
2021/03/06 05:38:38;;;;;;;1.38;0.10;;;-2.10;78.90;;;;;;5012253;28;20408;-75
2021/03/06 05:41:04;;;;;;;0.10;0.10;;;-2.10;78.90;;;;;;4993952;28;20089;-74
2021/03/06 05:43:30;;;;;;;0.22;0.22;;;-2.10;78.90;;;;;;5011732;28;20488;-75
2021/03/06 05:45:56;;;;;;;0.10;0.10;;;-2.10;78.90;;;;;;5011506;28;20441;-74
2021/03/06 05:48:22;;;;;;;0.30;0.00;;;-2.10;78.90;;;;;;4994177;28;20045;-74
2021/03/06 05:50:50;;;;;;;0.28;0.08;;;-2.10;79.00;;;;;;5011895;28;20076;-75
2021/03/06 05:53:19;;;;;;;0.20;0.10;;;-2.20;78.90;;;;;;4994512;28;20069;-74
2021/03/06 05:55:51;;;;;;;0.05;0.05;;;-2.10;79.00;;;;;;5012106;28;20050;-74
2021/03/06 05:58:19;;;;;;;0.00;0.00;;;-2.20;79.00;;;;;;5011713;28;20191;-75
2021/03/06 06:00:45;;;;;;;0.00;0.00;;;-2.20;78.90;;;;;;5011827;28;20033;-75
2021/03/06 06:03:14;;;;;;;0.20;0.10;;;-2.10;79.00;;;;;;4994277;28;20168;-75
2021/03/06 06:05:40;;;;;;;0.10;0.00;;;-2.20;78.90;;;;;;4994213;28;20080;-74
2021/03/06 06:08:07;;;;;;;0.00;0.00;;;-2.20;78.90;;;;;;5011723;28;20049;-75
2021/03/06 06:10:33;;;;;;;0.17;0.10;;;-2.20;79.00;;;;;;5011579;28;20492;-75
2021/03/06 06:12:59;;;;;;;0.57;0.10;;;-2.20;79.10;;;;;;5011701;28;20033;-75
2021/03/06 06:15:25;;;;;;;0.32;0.10;;;-2.20;79.30;;;;;;5012310;28;20125;-75
2021/03/06 06:17:51;;;;;;;0.10;0.10;;;-2.20;79.10;;;;;;5015074;28;20483;-75
2021/03/06 06:20:18;;;;;;;0.00;0.00;;;-2.20;79.10;;;;;;4997678;28;20038;-75
2021/03/06 06:22:44;;;;;;;0.10;0.10;;;-2.20;79.10;;;;;;5015570;28;20041;-75
2021/03/06 06:25:10;;;;;;;0.00;0.00;;;-2.20;79.20;;;;;;4997722;28;20030;-75
2021/03/06 06:27:36;;;;;;;0.35;0.10;;;-2.20;79.20;;;;;;4997702;28;20466;-75
2021/03/06 06:30:12;;;;;;;0.00;0.00;;;-2.10;79.20;;;;;;5015303;28;20129;-75
2021/03/06 06:32:46;;;;;;;0.20;0.20;;;-2.20;79.20;;;;;;5014765;28;20081;-75
2021/03/06 06:35:14;;;;;;;0.13;0.10;;;-2.10;79.20;;;;;;5015015;28;20511;-75
2021/03/06 06:37:54;;;;;;;0.10;0.10;;;-2.10;79.10;;;;;;5015261;28;20085;-75
2021/03/06 06:40:22;;;;;;;0.10;0.10;;;-2.10;79.00;;;;;;5015000;28;20057;-75
2021/03/06 06:42:48;;;;;;;0.00;0.00;;;-2.00;79.00;;;;;;5014807;28;20041;-75
2021/03/06 06:45:15;;;;;;;0.10;0.10;;;-2.10;79.00;;;;;;4997109;28;20053;-75
2021/03/06 06:47:43;;;;;;;0.10;0.10;;;-2.10;79.00;;;;;;5014806;28;20042;-75
2021/03/06 06:50:11;;;;;;;0.47;0.20;;;-2.00;79.00;;;;;;5014632;28;20050;-75
2021/03/06 06:52:41;;;;;;;0.95;0.30;;;-1.90;79.00;;;;;;5014548;28;20125;-75
2021/03/06 06:55:10;;;;;;;0.08;0.08;;;-2.00;78.90;;;;;;5014843;28;20049;-75
2021/03/06 06:57:48;;;;;;;0.10;0.10;;;-1.90;78.90;;;;;;5014466;28;20046;-75
2021/03/06 07:00:15;;;;;;;0.10;0.10;;;-1.90;78.90;;;;;;5014430;28;20046;-75
2021/03/06 07:03:02;;;;;;;0.00;0.00;;;-1.80;78.80;;;;;;4996971;28;20136;-75
2021/03/06 07:05:32;;;;;;;0.00;0.00;;;-1.70;78.80;;;;;;5014199;28;20033;-74
2021/03/06 07:08:00;;;;;;;1.33;0.10;;;-1.60;78.70;;;;;;5014794;28;20093;-74
2021/03/06 07:10:36;;;;;;;0.10;0.10;;;-1.60;78.60;;;;;;5014467;28;20038;-73
2021/03/06 07:13:05;;;;;;;0.30;0.20;;;-1.50;78.50;;;;;;4996408;28;20034;-74
2021/03/06 07:15:31;;;;;;;0.10;0.10;;;-1.50;78.40;;;;;;5014321;28;20092;-74
2021/03/06 07:18:00;;;;;;;0.00;0.00;;;-1.40;78.40;;;;;;5014165;28;20034;-74
2021/03/06 07:20:29;;;;;;;0.00;0.00;;;-1.40;78.40;;;;;;5014735;28;20050;-74
2021/03/06 07:22:58;;;;;;;0.15;0.10;;;-1.20;78.30;;;;;;5013890;28;20084;-75
2021/03/06 07:25:25;;;;;;;0.10;0.10;;;-1.20;78.20;;;;;;4980499;28;20544;-75
2021/03/06 07:27:52;;;;;;;0.20;0.20;;;-1.10;78.20;;;;;;5014097;28;20073;-75
2021/03/06 07:30:18;;;;;;;0.00;0.00;;;-1.00;78.10;;;;;;5012221;28;20048;-75
2021/03/06 07:32:46;;;;;;;0.10;0.10;;;-0.90;78.00;;;;;;4996084;28;20482;-75
2021/03/06 07:35:14;;;;;;;0.20;0.10;;;-0.80;78.00;;;;;;4996846;28;20046;-75
2021/03/06 07:37:41;;;;;;;0.25;0.13;;;-0.80;77.80;;;;;;5014292;28;20053;-75
2021/03/06 07:40:10;;;;;;;0.10;0.10;;;-0.70;77.70;;;;;;5013710;28;20034;-75
2021/03/06 07:42:47;;;;;;;0.10;0.10;;;-0.60;77.70;;;;;;4996428;28;20038;-75
2021/03/06 07:45:18;;;;;;;0.10;0.10;;;-0.40;77.80;;;;;;5013802;28;20412;-75
2021/03/06 07:47:47;;;;;;;0.38;0.13;;;-0.30;77.60;;;;;;5013584;28;20129;-75
2021/03/06 07:50:19;;;;;;;0.10;0.10;;;-0.20;77.40;;;;;;4996308;28;20046;-75
2021/03/06 07:52:46;;;;;;;0.10;0.10;;;0.00;77.40;;;;;;5013568;28;20083;-75
2021/03/06 07:55:14;;;;;;;0.10;0.10;;;0.10;77.30;;;;;;5013717;28;20038;-75
2021/03/06 07:58:12;;;;;;;0.10;0.10;;;0.20;77.00;;;;;;4996431;28;20038;-75
2021/03/06 08:00:56;;;;;;;0.52;0.20;;;0.40;77.10;;;;;;5013572;28;20038;-75
2021/03/06 08:03:35;;;;;;;0.47;0.25;;;0.60;76.90;;;;;;5013503;28;20029;-75
2021/03/06 08:06:17;;;;;;;0.20;0.20;;;0.80;76.80;;;;;;5013445;28;20396;-75
2021/03/06 08:08:52;;;;;;;0.70;0.10;;;0.90;76.60;;;;;;5013414;28;20115;-75
2021/03/06 08:11:23;;;;;;;0.50;0.20;;;1.20;76.50;;;;;;5013884;28;20050;-75
2021/03/06 08:13:59;;;;;;;0.00;0.00;;;1.30;76.40;;;;;;5013414;28;20050;-75
2021/03/06 08:16:40;;;;;;;0.22;0.20;;;1.50;76.30;;;;;;5014012;28;20034;-75
2021/03/06 08:19:26;;;;;;;0.20;0.20;;;1.60;76.20;;;;;;5013900;28;20124;-75
2021/03/06 08:21:56;;;;;;;0.10;0.10;;;1.70;76.20;;;;;;4996094;28;20407;-75
2021/03/06 08:24:23;;;;;;;0.10;0.10;;;1.90;76.20;;;;;;5013419;28;20053;-75
2021/03/06 08:27:10;;;;;;;0.10;0.10;;;2.10;76.20;;;;;;5013228;28;20056;-75
2021/03/06 08:29:38;;;;;;;0.35;0.15;;;2.20;76.10;;;;;;5013241;28;20104;-75
2021/03/06 08:32:07;;;;;;;0.38;0.38;;;2.40;76.10;;;;;;4995568;28;20373;-75
2021/03/06 08:34:53;;;;;;;0.30;0.20;;;2.50;76.10;;;;;;5013643;28;20062;-75
2021/03/06 08:37:39;;;;;;;0.10;0.10;;;2.60;76.10;;;;;;5012950;28;20104;-75
2021/03/06 08:40:08;;;;;;;0.17;0.17;;;2.80;76.10;;;;;;4998531;28;20041;-75
2021/03/06 08:42:38;;;;;;;0.20;0.20;;;2.90;75.90;;;;;;5013016;28;20077;-75
2021/03/06 08:45:09;;;;;;;0.10;0.10;;;3.10;75.90;;;;;;4979370;28;20072;-75
2021/03/06 08:47:37;;;;;;;0.20;0.10;;;3.10;75.90;;;;;;5013074;28;20038;-75
2021/03/06 08:50:07;;;;;;;0.10;0.10;;;3.30;76.00;;;;;;5013080;28;20052;-75
2021/03/06 08:52:33;;;;;;;0.30;0.20;;;3.30;75.90;;;;;;5013039;28;20496;-75
2021/03/06 08:54:59;;;;;;;0.17;0.10;;;3.40;76.00;;;;;;5012996;28;20117;-75
2021/03/06 08:57:35;;;;;;;0.25;0.10;;;3.50;76.00;;;;;;4995354;28;20459;-75
2021/03/06 09:00:16;;;;;;;0.40;0.20;;;3.50;76.10;;;;;;5012641;28;20099;-75
2021/03/06 09:02:42;;;;;;;0.10;0.10;;;3.60;76.20;;;;;;5013434;28;20033;-75
2021/03/06 09:05:13;;;;;;;0.25;0.13;;;3.60;76.10;;;;;;4995223;28;20034;-75
2021/03/06 09:07:41;;;;;;;0.40;0.20;;;3.70;76.20;;;;;;5013244;28;20037;-76
2021/03/06 09:10:24;;;;;;;0.17;0.10;;;3.80;76.20;;;;;;5013248;28;20396;-75
2021/03/06 09:12:53;;;;;;;1.08;0.20;;;3.80;76.30;;;;;;4995163;28;20124;-75
2021/03/06 09:15:34;;;;;;;0.20;0.10;;;3.90;76.30;;;;;;5012763;28;20132;-75
2021/03/06 09:18:02;;;;;;;0.80;0.28;;;3.80;76.30;;;;;;5012721;28;20096;-75
2021/03/06 09:20:30;;;;;;;0.20;0.20;;;4.00;76.30;;;;;;5012815;28;20072;-75
2021/03/06 09:22:56;;;;;;;0.30;0.20;;;4.00;76.30;;;;;;5012542;28;20052;-75
2021/03/06 09:25:35;;;;;;;0.35;0.20;;;4.10;76.30;;;;;;5012439;28;20054;-74
2021/03/06 09:28:02;;;;;;;0.93;0.20;;;4.20;76.30;;;;;;5012200;28;20408;-73
2021/03/06 09:30:33;;;;;;;0.93;0.20;;;4.20;76.20;;;;;;5012939;28;20048;-73
2021/03/06 09:32:59;;;;;;;0.10;0.10;;;4.40;76.20;;;;;;5012994;28;20069;-73
2021/03/06 09:35:27;;;;;;;1.13;0.30;;;4.40;76.10;;;;;;5013066;28;20281;-74
2021/03/06 09:38:13;;;;;;;0.80;0.20;;;4.40;76.00;;;;;;5012172;28;20124;-73
2021/03/06 09:40:43;;;;;;;0.52;0.10;;;4.50;76.00;;;;;;5012264;28;20036;-72
2021/03/06 09:43:12;;;;;;;0.17;0.17;;;4.70;75.90;;;;;;5012140;28;20038;-73
2021/03/06 09:45:38;;;;;;;0.22;0.20;;;4.70;75.70;;;;;;5013479;28;20042;-76
2021/03/06 09:48:50;;;;;;;0.38;0.10;;;4.90;75.60;;;;;;4997016;28;20072;-75
2021/03/06 09:51:17;;;;;;;0.30;0.10;;;5.10;75.30;;;;;;5005038;28;20064;-75
2021/03/06 09:53:43;;;;;;;0.40;0.20;;;5.40;75.00;;;;;;5016712;28;20073;-76
2021/03/06 09:56:13;;;;;;;1.50;0.20;;;5.50;74.50;;;;;;5003262;28;20050;-77
2021/03/06 09:58:40;;;;;;;0.30;0.20;;;5.60;74.20;;;;;;5011919;28;20046;-78
2021/03/06 10:01:21;;;;;;;0.28;0.20;;;5.70;74.30;;;;;;5009408;28;20037;-76
2021/03/06 10:03:49;;;;;;;0.22;0.10;;;5.70;74.20;;;;;;5021301;28;20046;-74
2021/03/06 10:06:19;;;;;;;0.82;0.20;;;5.80;74.10;;;;;;5019517;28;20038;-75
2021/03/06 10:08:51;;;;;;;0.30;0.20;;;5.60;74.10;;;;;;5019896;28;20137;-74
2021/03/06 10:11:17;;;;;;;;;;;5.70;74.30;;;;;;5024006;28;20060;-76
2021/03/06 10:13:47;;;;;;;0.47;0.20;;;5.70;74.40;;;;;;5015158;28;19913;-75
2021/03/06 10:16:13;;;;;;;0.32;0.10;;;5.60;74.50;;;;;;4995625;28;20132;-74
2021/03/06 10:18:40;;;;;;;0.10;0.10;;;5.60;74.50;;;;;;5013041;28;20096;-74
2021/03/06 10:21:12;;;;;;;0.43;0.20;;;5.60;74.60;;;;;;5019044;28;20484;-74
2021/03/06 10:23:38;;;;;;;0.10;0.10;;;5.50;74.60;;;;;;5001408;28;20037;-74
2021/03/06 10:26:18;;;;;;;0.38;0.20;;;5.50;74.70;;;;;;5019223;28;20480;-74
2021/03/06 10:28:45;;;;;;;0.20;0.20;;;5.50;74.80;;;;;;5016239;28;20068;-75
2021/03/06 10:31:31;;;;;;;0.28;0.28;;;5.50;74.90;;;;;;4998790;28;20033;-71
2021/03/06 10:33:58;;;;;;;0.20;0.20;;;5.50;74.90;;;;;;5012900;28;20060;-72
2021/03/06 10:36:25;;;;;;;0.45;0.10;;;5.50;74.80;;;;;;5012811;28;20100;-74
2021/03/06 10:39:19;;;;;;;0.13;0.10;;;5.50;74.70;;;;;;5011603;28;20038;-73
2021/03/06 10:41:54;;;;;;;0.10;0.10;;;5.50;74.70;;;;;;4995909;28;20046;-73
2021/03/06 10:44:21;;;;;;;0.75;0.20;;;5.50;74.70;;;;;;5013541;28;20104;-74
2021/03/06 10:46:58;;;;;;;0.85;0.13;;;5.60;74.50;;;;;;5011590;28;20053;-74
2021/03/06 10:49:35;;;;;;;0.38;0.20;;;5.70;74.40;;;;;;4994099;28;20152;-74
2021/03/06 10:52:01;;;;;;;0.05;0.05;;;5.70;74.10;;;;;;5011363;28;20049;-74
2021/03/06 10:54:26;;;;;;;0.10;0.10;;;5.80;74.00;;;;;;5011893;28;20046;-74
2021/03/06 10:57:07;;;;;;;0.30;0.10;;;5.80;73.80;;;;;;5010934;28;20053;-75
2021/03/06 10:59:35;;;;;;;0.10;0.10;;;5.90;73.60;;;;;;4994316;28;20567;-74
2021/03/06 11:02:01;;;;;;;0.08;0.05;;;6.00;73.60;;;;;;5012754;28;20378;-74
2021/03/06 11:04:30;;;;;;;0.10;0.10;;;5.90;73.40;;;;;;4997797;28;20136;-74
2021/03/06 11:06:58;;;;;;;0.10;0.10;;;6.00;73.40;;;;;;5014871;28;20054;-74
2021/03/06 11:09:26;;;;;;;0.10;0.05;;;6.10;73.50;;;;;;5014499;28;20038;-74
2021/03/06 11:11:51;;;;;;;0.05;0.05;;;6.20;73.30;;;;;;5014572;28;20084;-74
2021/03/06 11:14:26;;;;;;;0.10;0.10;;;6.30;73.00;;;;;;5014990;28;20076;-73
2021/03/06 11:16:51;;;;;;;0.10;0.10;;;6.30;72.80;;;;;;5014442;28;20034;-74
2021/03/06 11:19:17;;;;;;;0.10;0.10;;;6.50;72.70;;;;;;5014673;28;20044;-74
2021/03/06 11:21:43;;;;;;;0.10;0.10;;;6.60;72.50;;;;;;5014296;28;20084;-74
2021/03/06 11:24:10;;;;;;;0.45;0.22;;;6.70;72.40;;;;;;4996701;28;20030;-73
2021/03/06 11:26:36;;;;;;;0.13;0.10;;;6.80;72.30;;;;;;5014804;28;20069;-74
2021/03/06 11:29:04;;;;;;;0.20;0.20;;;6.80;72.00;;;;;;5013744;28;20038;-73
2021/03/06 11:31:31;;;;;;;0.00;0.00;;;6.80;71.70;;;;;;4996429;28;20492;-73
2021/03/06 11:33:57;;;;;;;0.10;0.10;;;7.00;71.80;;;;;;5014895;28;20053;-73
2021/03/06 11:36:23;;;;;;;0.52;0.20;;;7.00;71.60;;;;;;5013905;28;20046;-74
2021/03/06 11:38:49;;;;;;;0.10;0.10;;;7.10;71.50;;;;;;5014279;28;20514;-73
2021/03/06 11:41:15;;;;;;;0.40;0.20;;;7.20;71.80;;;;;;5014171;28;20038;-74
2021/03/06 11:43:41;;;;;;;0.10;0.10;;;7.20;71.10;;;;;;5014105;28;20038;-74
2021/03/06 11:46:07;;;;;;;0.30;0.22;;;7.30;71.10;;;;;;5013968;28;20065;-73
2021/03/06 11:48:33;;;;;;;0.22;0.10;;;7.30;70.90;;;;;;5014674;28;20042;-73
2021/03/06 11:50:59;;;;;;;0.10;0.10;;;7.40;70.70;;;;;;4979967;28;20407;-71
2021/03/06 11:53:25;;;;;;;0.38;0.13;;;7.50;70.60;;;;;;5014210;28;20057;-74
2021/03/06 11:55:50;;;;;;;0.10;0.10;;;7.60;70.30;;;;;;5014074;28;20092;-74
2021/03/06 11:58:16;;;;;;;0.10;0.10;;;7.60;70.20;;;;;;5014019;28;20042;-74
2021/03/06 12:00:42;;;;;;;0.10;0.10;;;7.70;70.00;;;;;;5014178;28;20056;-74
2021/03/06 12:03:08;;;;;;;0.55;0.20;;;7.70;69.90;;;;;;5014081;28;20038;-75
2021/03/06 12:05:34;;;;;;;0.17;0.17;;;7.70;69.80;;;;;;5013828;28;20029;-74
2021/03/06 12:08:00;;;;;;;0.57;0.10;;;7.70;69.70;;;;;;4996439;28;20084;-72
2021/03/06 12:10:30;;;;;;;0.93;0.30;;;7.70;69.70;;;;;;5014005;28;20480;-74
2021/03/06 12:12:56;;;;;;;0.35;0.20;;;7.70;69.80;;;;;;5012938;28;20034;-74
2021/03/06 12:15:23;;;;;;;0.20;0.20;;;7.70;69.70;;;;;;5013624;28;20030;-74
2021/03/06 12:17:49;;;;;;;0.43;0.10;;;7.70;69.70;;;;;;5013709;28;20042;-72
2021/03/06 12:20:16;;;;;;;0.10;0.10;;;7.70;69.80;;;;;;5013626;28;20034;-72
2021/03/06 12:22:43;;;;;;;0.20;0.13;;;7.70;69.80;;;;;;5013898;28;20026;-72
2021/03/06 12:25:10;;;;;;;0.20;0.20;;;7.80;69.80;;;;;;5013578;28;20046;-71
2021/03/06 12:27:37;;;;;;;0.40;0.20;;;7.80;69.50;;;;;;5013310;28;20041;-73
2021/03/06 12:30:06;;;;;;;0.15;0.13;;;7.90;69.20;;;;;;4996004;28;20052;-72
2021/03/06 12:32:33;;;;;;;0.35;0.20;;;7.90;68.90;;;;;;5013562;28;20049;-71
2021/03/06 12:34:59;;;;;;;0.20;0.20;;;8.00;68.90;;;;;;5013252;28;20399;-73
2021/03/06 12:37:25;;;;;;;0.38;0.20;;;8.10;68.80;;;;;;5013554;28;20049;-74
2021/03/06 12:39:51;;;;;;;0.10;0.10;;;8.20;68.60;;;;;;5013292;28;20041;-74
2021/03/06 12:42:17;;;;;;;1.00;0.10;;;8.30;68.40;;;;;;5013867;28;20038;-72
2021/03/06 12:44:42;;;;;;;0.47;0.20;;;8.30;68.30;;;;;;5013784;28;20042;-73
2021/03/06 12:47:09;;;;;;;0.10;0.10;;;8.30;68.10;;;;;;5013062;28;20399;-71
2021/03/06 12:49:35;;;;;;;0.20;0.20;;;8.30;68.00;;;;;;5013057;28;20484;-74
2021/03/06 12:52:01;;;;;;;0.55;0.10;;;8.20;67.90;;;;;;5013448;28;20045;-74
2021/03/06 12:54:28;;;;;;;1.35;0.28;;;8.00;68.10;;;;;;5012918;28;20081;-71
2021/03/06 12:56:54;;;;;;;0.10;0.10;;;8.00;68.60;;;;;;5013227;28;20070;-74
2021/03/06 12:59:20;;;;;;;0.20;0.20;;;8.30;68.70;;;;;;5013143;28;20103;-74
2021/03/06 13:01:46;;;;;;;0.28;0.20;;;8.40;68.20;;;;;;5013878;28;20480;-75